createdAt,value
2022-12-03T00:01:58.919Z,0.68
2022-12-03T00:04:28.422Z,0.66
2022-12-03T00:06:57.408Z,0.65
2022-12-03T00:09:26.313Z,0.64
2022-12-03T00:11:55.711Z,0.63
2022-12-03T00:14:26.363Z,0.63
2022-12-03T00:16:55.241Z,0.65
2022-12-03T00:19:24.621Z,0.68
2022-12-03T00:21:54.227Z,0.71
2022-12-03T00:24:23.642Z,0.72
2022-12-03T00:26:53.166Z,0.72
2022-12-03T00:29:23.086Z,0.73
2022-12-03T00:31:52.874Z,0.72
2022-12-03T00:34:22.772Z,0.70
2022-12-03T00:36:51.567Z,0.67
2022-12-03T00:39:20.557Z,0.67
2022-12-03T00:41:49.982Z,0.66
2022-12-03T00:44:19.974Z,0.67
2022-12-03T00:46:49.030Z,0.66
2022-12-03T00:49:18.584Z,0.69
2022-12-03T00:51:49.052Z,0.69
2022-12-03T00:54:17.920Z,0.71
2022-12-03T00:56:47.796Z,0.73
2022-12-03T00:59:18.175Z,0.74
2022-12-03T01:01:47.366Z,0.74
2022-12-03T01:04:17.448Z,0.73
2022-12-03T01:06:47.264Z,0.73
2022-12-03T01:09:16.678Z,0.74
2022-12-03T01:11:46.283Z,0.75
2022-12-03T01:14:17.956Z,0.75
2022-12-03T01:16:48.451Z,0.76
2022-12-03T01:19:18.791Z,0.77
2022-12-03T01:21:49.187Z,0.76
2022-12-03T01:24:19.707Z,0.76
2022-12-03T01:26:49.012Z,0.75
2022-12-03T01:29:18.338Z,0.75
2022-12-03T01:32:06.376Z,0.77
2022-12-03T01:34:35.925Z,0.76
2022-12-03T01:37:05.289Z,0.75
2022-12-03T01:39:34.495Z,0.74
2022-12-03T01:42:05.114Z,0.73
2022-12-03T01:44:37.021Z,0.72
2022-12-03T01:47:11.929Z,0.69
2022-12-03T01:50:00.546Z,0.69
2022-12-03T01:52:35.285Z,0.70
2022-12-03T01:55:12.205Z,0.68
2022-12-03T01:57:45.252Z,0.69
2022-12-03T02:00:21.619Z,0.69
2022-12-03T02:03:02.200Z,0.68
2022-12-03T02:05:33.996Z,0.63
2022-12-03T02:08:42.795Z,0.61
2022-12-03T02:11:32.447Z,0.59
2022-12-03T02:14:11.046Z,0.53
2022-12-03T02:16:42.622Z,0.52
2022-12-03T02:19:26.797Z,0.50
2022-12-03T02:22:17.046Z,0.46
2022-12-03T02:25:01.007Z,0.44
2022-12-03T02:27:30.749Z,0.44
2022-12-03T02:30:00.227Z,0.45
2022-12-03T02:32:31.231Z,0.46
2022-12-03T02:35:02.234Z,0.45
2022-12-03T02:37:38.746Z,0.46
2022-12-03T02:40:13.604Z,0.44
2022-12-03T02:42:46.205Z,0.44
2022-12-03T02:45:28.006Z,0.46
2022-12-03T02:48:20.951Z,0.48
2022-12-03T02:50:58.090Z,0.47
2022-12-03T02:53:33.457Z,0.45
2022-12-03T02:56:04.874Z,0.43
2022-12-03T02:58:37.125Z,0.44
2022-12-03T03:01:09.082Z,0.45
2022-12-03T03:03:41.205Z,0.46
2022-12-03T03:06:11.421Z,0.47
2022-12-03T03:08:43.393Z,0.45
2022-12-03T03:11:13.227Z,0.42
2022-12-03T03:13:43.316Z,0.43
2022-12-03T03:16:13.794Z,0.43
2022-12-03T03:18:43.836Z,0.41
2022-12-03T03:21:14.028Z,0.41
2022-12-03T03:23:43.251Z,0.40
2022-12-03T03:26:15.657Z,0.38
2022-12-03T03:28:49.851Z,0.39
2022-12-03T03:31:23.893Z,0.39
2022-12-03T03:33:54.043Z,0.39
2022-12-03T03:36:26.198Z,0.38
2022-12-03T03:38:56.111Z,0.40
2022-12-03T03:41:27.523Z,0.41
2022-12-03T03:43:58.782Z,0.39
2022-12-03T03:46:30.131Z,0.32
2022-12-03T03:49:03.342Z,0.30
2022-12-03T03:51:37.580Z,0.29
2022-12-03T03:54:08.214Z,0.26
2022-12-03T03:56:39.095Z,0.21
2022-12-03T03:59:09.245Z,0.21
2022-12-03T04:01:39.502Z,0.20
2022-12-03T04:04:21.067Z,0.24
2022-12-03T04:06:51.078Z,0.28
2022-12-03T04:09:20.433Z,0.30
2022-12-03T04:12:08.364Z,0.31
2022-12-03T04:14:39.698Z,0.32
2022-12-03T04:17:09.539Z,0.35
2022-12-03T04:19:38.813Z,0.38
2022-12-03T04:22:26.449Z,0.39
2022-12-03T04:25:15.625Z,0.41
2022-12-03T04:28:04.780Z,0.46
2022-12-03T04:30:34.005Z,0.51
2022-12-03T04:33:23.273Z,0.54
2022-12-03T04:35:53.585Z,0.57
2022-12-03T04:38:23.673Z,0.60
2022-12-03T04:41:03.338Z,0.63
2022-12-03T04:43:35.357Z,0.65
2022-12-03T04:46:04.327Z,0.69
2022-12-03T04:48:33.979Z,0.70
2022-12-03T04:51:03.304Z,0.72
2022-12-03T04:53:36.251Z,0.75
2022-12-03T04:56:06.400Z,0.79
2022-12-03T04:58:35.289Z,0.82
2022-12-03T05:01:04.721Z,0.85
2022-12-03T05:03:33.685Z,0.88
2022-12-03T05:06:02.989Z,0.92
2022-12-03T05:08:31.869Z,0.95
2022-12-03T05:11:01.265Z,0.95
2022-12-03T05:13:30.262Z,0.96
2022-12-03T05:15:59.057Z,0.97
2022-12-03T05:18:28.080Z,0.98
2022-12-03T05:20:57.068Z,1.02
2022-12-03T05:23:26.350Z,1.04
2022-12-03T05:25:56.044Z,1.02
2022-12-03T05:28:25.356Z,1.03
2022-12-03T05:30:55.230Z,1.05
2022-12-03T05:33:24.161Z,1.07
2022-12-03T05:35:54.065Z,1.09
2022-12-03T05:38:22.972Z,1.11
2022-12-03T05:40:52.154Z,1.10
2022-12-03T05:43:21.472Z,1.10
2022-12-03T05:45:51.437Z,1.11
2022-12-03T05:48:20.387Z,1.13
2022-12-03T05:50:49.976Z,1.15
2022-12-03T05:53:19.073Z,1.16
2022-12-03T05:55:48.466Z,1.17
2022-12-03T05:58:17.773Z,1.17
2022-12-03T06:00:46.559Z,1.20
2022-12-03T06:03:15.983Z,1.23
2022-12-03T06:05:45.053Z,1.23
2022-12-03T06:08:14.632Z,1.24
2022-12-03T06:10:43.858Z,1.24
2022-12-03T06:13:12.780Z,1.23
2022-12-03T06:15:44.001Z,1.24
2022-12-03T06:18:13.493Z,1.25
2022-12-03T06:20:42.179Z,1.24
2022-12-03T06:23:10.867Z,1.22
2022-12-03T06:25:41.109Z,1.22
2022-12-03T06:28:10.077Z,1.24
2022-12-03T06:30:38.969Z,1.24
2022-12-03T06:33:07.760Z,1.26
2022-12-03T06:35:37.263Z,1.30
2022-12-03T06:38:06.258Z,1.32
2022-12-03T06:40:35.246Z,1.32
2022-12-03T06:43:04.338Z,1.35
2022-12-03T06:45:33.231Z,1.38
2022-12-03T06:48:02.017Z,1.38
2022-12-03T06:50:31.113Z,1.38
2022-12-03T06:53:00.107Z,1.40
2022-12-03T06:55:28.895Z,1.41
2022-12-03T06:57:57.573Z,1.44
2022-12-03T07:00:26.163Z,1.44
2022-12-03T07:02:54.916Z,1.46
2022-12-03T07:05:23.838Z,1.48
2022-12-03T07:07:55.771Z,1.52
2022-12-03T07:10:24.701Z,1.55
2022-12-03T07:12:53.580Z,1.58
2022-12-03T07:15:22.470Z,1.60
2022-12-03T07:17:51.465Z,1.62
2022-12-03T07:20:20.251Z,1.64
2022-12-03T07:22:48.835Z,1.68
2022-12-03T07:25:22.826Z,1.71
2022-12-03T07:27:52.552Z,1.76
2022-12-03T07:30:22.159Z,1.83
2022-12-03T07:32:50.648Z,1.86
2022-12-03T07:35:19.533Z,1.90
2022-12-03T07:37:48.221Z,1.96
2022-12-03T07:40:18.028Z,2.02
2022-12-03T07:42:46.612Z,2.11
2022-12-03T07:45:15.503Z,2.19
2022-12-03T07:47:44.187Z,2.22
2022-12-03T07:50:13.093Z,2.22
2022-12-03T07:52:41.863Z,2.24
2022-12-03T07:55:11.927Z,2.24
2022-12-03T07:57:40.671Z,2.17
2022-12-03T08:00:11.074Z,2.16
2022-12-03T08:02:39.619Z,2.19
2022-12-03T08:05:09.293Z,2.24
2022-12-03T08:07:38.018Z,2.26
2022-12-03T08:10:08.020Z,2.32
2022-12-03T08:12:42.517Z,2.37
2022-12-03T08:15:12.866Z,2.42
2022-12-03T08:17:42.774Z,2.46
2022-12-03T08:20:16.947Z,2.57
2022-12-03T08:22:47.700Z,2.67
2022-12-03T08:25:25.515Z,2.76
2022-12-03T08:28:02.965Z,2.89
2022-12-03T08:30:31.680Z,3.05
2022-12-03T08:33:00.268Z,3.15
2022-12-03T08:35:31.634Z,3.25
2022-12-03T08:38:12.036Z,3.32
2022-12-03T08:40:43.785Z,3.30
2022-12-03T08:43:24.907Z,3.37
2022-12-03T08:45:57.898Z,3.41
2022-12-03T08:48:34.258Z,3.50
2022-12-03T08:51:20.760Z,3.57
2022-12-03T08:54:01.723Z,3.66
2022-12-03T08:56:37.073Z,3.71
2022-12-03T08:59:27.059Z,3.89
2022-12-03T09:01:57.207Z,4.03
2022-12-03T09:04:45.806Z,4.06
2022-12-03T09:07:14.511Z,4.17
2022-12-03T09:09:43.124Z,4.26
2022-12-03T09:12:11.985Z,4.39
2022-12-03T09:14:40.465Z,4.45
2022-12-03T09:17:09.215Z,4.49
2022-12-03T09:19:44.267Z,4.50
2022-12-03T09:22:15.740Z,4.51
2022-12-03T09:24:44.732Z,4.62
2022-12-03T09:27:13.322Z,4.69
2022-12-03T09:29:42.104Z,4.88
2022-12-03T09:32:16.669Z,5.07
2022-12-03T09:34:47.875Z,5.24
2022-12-03T09:37:16.863Z,5.31
2022-12-03T09:39:45.516Z,5.33
2022-12-03T09:42:15.878Z,5.40
2022-12-03T09:44:44.866Z,5.50
2022-12-03T09:47:14.068Z,5.64
2022-12-03T09:49:43.471Z,5.62
2022-12-03T09:52:21.178Z,5.52
2022-12-03T09:54:50.156Z,5.60
2022-12-03T09:57:19.760Z,5.67
2022-12-03T09:59:48.446Z,5.78
2022-12-03T10:02:29.942Z,5.95
2022-12-03T10:04:58.893Z,6.04
2022-12-03T10:07:27.796Z,5.97
2022-12-03T10:09:56.934Z,5.94
2022-12-03T10:12:27.036Z,6.03
2022-12-03T10:14:56.236Z,6.19
2022-12-03T10:17:25.122Z,6.35
2022-12-03T10:19:54.394Z,6.44
2022-12-03T10:22:23.309Z,6.61
2022-12-03T10:25:10.755Z,6.82
2022-12-03T10:27:40.468Z,7.02
2022-12-03T10:30:19.823Z,7.05
2022-12-03T10:32:51.065Z,7.25
2022-12-03T10:35:25.149Z,7.70
2022-12-03T10:38:02.423Z,8.35
2022-12-03T10:40:37.968Z,8.98
2022-12-03T10:43:15.664Z,9.55
2022-12-03T10:45:49.065Z,10.02
2022-12-03T10:48:25.878Z,10.23
2022-12-03T10:51:02.409Z,10.35
2022-12-03T10:53:33.712Z,10.25
2022-12-03T10:56:06.398Z,10.50
2022-12-03T10:58:36.860Z,10.66
2022-12-03T11:01:23.747Z,10.56
2022-12-03T11:03:54.129Z,10.24
2022-12-03T11:06:24.320Z,10.10
2022-12-03T11:08:58.746Z,9.94
2022-12-03T11:11:31.525Z,9.75
2022-12-03T11:14:04.514Z,9.44
2022-12-03T11:16:42.136Z,9.23
2022-12-03T11:19:13.860Z,9.05
2022-12-03T11:22:07.536Z,8.82
2022-12-03T11:24:38.161Z,8.44
2022-12-03T11:27:11.975Z,8.21
2022-12-03T11:29:51.512Z,7.91
2022-12-03T11:32:38.730Z,7.78
2022-12-03T11:35:29.008Z,7.79
2022-12-03T11:38:35.798Z,7.76
2022-12-03T11:41:31.105Z,7.96
2022-12-03T11:44:31.450Z,8.41
2022-12-03T11:47:07.928Z,8.79
2022-12-03T11:49:39.763Z,9.32
2022-12-03T11:52:25.441Z,9.76
2022-12-03T11:55:01.512Z,10.18
2022-12-03T11:57:34.009Z,10.42
2022-12-03T12:00:11.882Z,10.67
2022-12-03T12:02:44.449Z,10.85
2022-12-03T12:05:27.068Z,10.95
2022-12-03T12:07:57.287Z,10.89
2022-12-03T12:10:48.374Z,10.95
2022-12-03T12:13:26.094Z,10.93
2022-12-03T12:15:55.407Z,10.83
2022-12-03T12:18:53.707Z,10.64
2022-12-03T12:21:44.989Z,10.29
2022-12-03T12:24:32.213Z,10.17
2022-12-03T12:27:04.994Z,9.78
2022-12-03T12:29:35.113Z,9.30
2022-12-03T12:32:09.891Z,9.17
2022-12-03T12:34:39.454Z,8.94
2022-12-03T12:37:23.390Z,8.64
2022-12-03T12:39:56.724Z,8.54
2022-12-03T12:42:36.432Z,8.46
2022-12-03T12:45:08.390Z,8.24
2022-12-03T12:47:37.250Z,8.08
2022-12-03T12:50:11.293Z,7.99
2022-12-03T12:52:49.807Z,7.92
2022-12-03T12:55:19.383Z,7.75
2022-12-03T12:57:48.005Z,7.74
2022-12-03T13:00:23.926Z,7.83
2022-12-03T13:03:00.229Z,8.10
2022-12-03T13:05:56.771Z,8.18
2022-12-03T13:08:31.182Z,8.24
2022-12-03T13:11:05.684Z,8.45
2022-12-03T13:13:37.406Z,8.61
2022-12-03T13:16:23.642Z,8.88
2022-12-03T13:19:00.033Z,9.08
2022-12-03T13:21:43.036Z,9.08
2022-12-03T13:24:38.450Z,8.99
2022-12-03T13:27:32.220Z,8.91
2022-12-03T13:30:16.060Z,8.74
2022-12-03T13:32:44.751Z,8.43
2022-12-03T13:35:36.427Z,8.08
2022-12-03T13:38:14.153Z,7.71
2022-12-03T13:40:43.161Z,7.45
2022-12-03T13:43:20.867Z,7.27
2022-12-03T13:45:51.668Z,7.00
2022-12-03T13:48:31.652Z,6.67
2022-12-03T13:51:21.425Z,6.45
2022-12-03T13:53:50.315Z,6.06
2022-12-03T13:56:30.881Z,5.84
2022-12-03T13:59:01.103Z,5.56
2022-12-03T14:01:30.488Z,5.33
2022-12-03T14:03:59.221Z,5.09
2022-12-03T14:06:28.188Z,4.95
2022-12-03T14:08:56.971Z,4.82
2022-12-03T14:11:44.096Z,4.67
2022-12-03T14:14:12.880Z,4.54
2022-12-03T14:16:41.509Z,4.43
2022-12-03T14:19:10.559Z,4.29
2022-12-03T14:21:39.647Z,4.21
2022-12-03T14:24:08.436Z,4.15
2022-12-03T14:26:37.024Z,4.01
2022-12-03T14:29:08.707Z,3.87
2022-12-03T14:31:37.838Z,3.71
2022-12-03T14:34:06.561Z,3.58
2022-12-03T14:36:35.201Z,3.51
2022-12-03T14:39:03.931Z,3.71
2022-12-03T14:41:51.869Z,3.68
2022-12-03T14:44:23.918Z,3.66
2022-12-03T14:46:56.742Z,3.68
2022-12-03T14:49:26.319Z,3.62
2022-12-03T14:51:55.106Z,3.55
2022-12-03T14:54:23.894Z,3.41
2022-12-03T14:56:52.476Z,3.32
2022-12-03T14:59:27.194Z,3.21
2022-12-03T15:01:56.707Z,3.08
2022-12-03T15:04:26.111Z,2.95
2022-12-03T15:06:54.695Z,2.85
2022-12-03T15:09:23.992Z,2.82
2022-12-03T15:11:52.884Z,2.79
2022-12-03T15:14:23.720Z,2.76
2022-12-03T15:16:52.600Z,2.71
2022-12-03T15:19:21.602Z,2.61
2022-12-03T15:21:50.085Z,2.53
2022-12-03T15:24:18.871Z,2.51
2022-12-03T15:26:47.356Z,2.50
2022-12-03T15:29:16.038Z,2.49
2022-12-03T15:31:44.881Z,2.45
2022-12-03T15:34:18.779Z,2.39
2022-12-03T15:36:51.577Z,2.30
2022-12-03T15:39:20.202Z,2.21
2022-12-03T15:41:49.806Z,2.12
2022-12-03T15:44:18.594Z,2.03
2022-12-03T15:46:47.287Z,1.95
2022-12-03T15:49:16.166Z,1.89
2022-12-03T15:51:44.753Z,1.83
2022-12-03T15:54:13.442Z,1.76
2022-12-03T15:56:42.943Z,1.71
2022-12-03T15:59:11.525Z,1.65
2022-12-03T16:01:40.359Z,1.60
2022-12-03T16:04:17.498Z,1.56
2022-12-03T16:06:47.009Z,1.51
2022-12-03T16:09:15.587Z,1.46
2022-12-03T16:11:44.171Z,1.40
2022-12-03T16:14:12.753Z,1.34
2022-12-03T16:16:41.339Z,1.30
2022-12-03T16:19:09.920Z,1.25
2022-12-03T16:21:39.239Z,1.25
2022-12-03T16:24:09.031Z,1.26
2022-12-03T16:26:37.870Z,1.30
2022-12-03T16:29:06.509Z,1.35
2022-12-03T16:31:35.130Z,1.40
2022-12-03T16:34:03.784Z,1.44
2022-12-03T16:36:32.559Z,1.48
2022-12-03T16:39:01.141Z,1.50
2022-12-03T16:41:29.771Z,1.54
2022-12-03T16:43:59.134Z,1.58
2022-12-03T16:46:27.674Z,1.62
2022-12-03T16:48:58.207Z,1.65
2022-12-03T16:51:28.579Z,1.70
2022-12-03T16:53:57.250Z,1.74
2022-12-03T16:56:25.842Z,1.77
2022-12-03T16:58:54.932Z,1.80
2022-12-03T17:01:25.032Z,1.84
2022-12-03T17:03:53.945Z,1.87
2022-12-03T17:06:22.726Z,1.91
2022-12-03T17:08:51.524Z,1.94
2022-12-03T17:11:20.103Z,1.98
2022-12-03T17:13:48.800Z,2.00
2022-12-03T17:16:17.515Z,2.02
2022-12-03T17:18:46.354Z,2.05
2022-12-03T17:21:15.048Z,2.06
2022-12-03T17:23:45.063Z,2.07
2022-12-03T17:26:15.692Z,2.09
2022-12-03T17:28:44.992Z,2.08
2022-12-03T17:31:14.149Z,2.04
2022-12-03T17:33:42.875Z,2.02
2022-12-03T17:36:11.766Z,2.01
2022-12-03T17:38:40.856Z,2.01
2022-12-03T17:41:09.542Z,2.00
2022-12-03T17:43:38.130Z,1.99
2022-12-03T17:46:07.699Z,1.98
2022-12-03T17:48:36.422Z,1.96
2022-12-03T17:51:05.156Z,1.93
2022-12-03T17:53:33.586Z,1.92
2022-12-03T17:56:02.375Z,1.92
2022-12-03T17:58:31.059Z,1.92
2022-12-03T18:01:03.126Z,1.93
2022-12-03T18:03:31.933Z,1.94
2022-12-03T18:06:00.801Z,1.94
2022-12-03T18:08:29.249Z,1.97
2022-12-03T18:10:57.866Z,2.00
2022-12-03T18:13:26.663Z,2.02
2022-12-03T18:15:55.289Z,2.05
2022-12-03T18:18:24.433Z,2.08
2022-12-03T18:20:53.963Z,2.10
2022-12-03T18:23:22.521Z,2.13
2022-12-03T18:25:51.273Z,2.16
2022-12-03T18:28:20.204Z,2.17
2022-12-03T18:30:52.518Z,2.17
2022-12-03T18:33:23.600Z,2.16
2022-12-03T18:35:57.511Z,2.14
2022-12-03T18:38:33.094Z,2.12
2022-12-03T18:41:01.752Z,2.10
2022-12-03T18:43:30.439Z,2.10
2022-12-03T18:45:59.325Z,2.10
2022-12-03T18:48:27.816Z,2.11
2022-12-03T18:50:56.798Z,2.14
2022-12-03T18:53:25.381Z,2.16
2022-12-03T18:55:53.880Z,2.20
2022-12-03T18:58:22.448Z,2.22
2022-12-03T19:00:51.160Z,2.25
2022-12-03T19:03:19.909Z,2.26
2022-12-03T19:05:48.813Z,2.29
2022-12-03T19:08:20.051Z,2.31
2022-12-03T19:10:59.802Z,2.34
2022-12-03T19:13:28.905Z,2.36
2022-12-03T19:15:57.672Z,2.37
2022-12-03T19:18:26.470Z,2.38
2022-12-03T19:20:55.367Z,2.40
2022-12-03T19:23:24.456Z,2.43
2022-12-03T19:26:01.396Z,2.45
2022-12-03T19:28:29.917Z,2.45
2022-12-03T19:31:03.679Z,2.45
2022-12-03T19:33:33.166Z,2.44
2022-12-03T19:36:04.064Z,2.44
2022-12-03T19:38:33.468Z,2.45
2022-12-03T19:41:07.952Z,2.46
2022-12-03T19:43:38.342Z,2.48
2022-12-03T19:46:08.927Z,2.49
2022-12-03T19:48:39.339Z,2.50
2022-12-03T19:51:32.964Z,2.52
2022-12-03T19:53:57.533Z,2.53
2022-12-03T19:56:26.219Z,2.52
2022-12-03T19:58:55.724Z,2.53
2022-12-03T20:01:27.007Z,2.53
2022-12-03T20:03:58.108Z,2.53
2022-12-03T20:06:29.806Z,2.52
2022-12-03T20:09:05.101Z,2.52
2022-12-03T20:11:34.801Z,2.51
2022-12-03T20:14:07.021Z,2.47
2022-12-03T20:16:36.741Z,2.42
2022-12-03T20:19:07.837Z,2.38
2022-12-03T20:21:37.553Z,2.35
2022-12-03T20:24:07.432Z,2.30
2022-12-03T20:26:36.139Z,2.26
2022-12-03T20:29:04.724Z,2.21
2022-12-03T20:31:33.662Z,2.20
2022-12-03T20:34:04.659Z,2.20
2022-12-03T20:36:33.442Z,2.17
2022-12-03T20:39:07.152Z,2.15
2022-12-03T20:41:36.756Z,2.10
2022-12-03T20:44:08.045Z,2.08
2022-12-03T20:46:36.762Z,2.04
2022-12-03T20:49:05.674Z,2.00
2022-12-03T20:51:34.262Z,1.94
2022-12-03T20:54:03.208Z,1.91
2022-12-03T20:56:34.766Z,1.87
2022-12-03T20:59:06.674Z,1.83
2022-12-03T21:01:36.596Z,1.82
2022-12-03T21:04:05.985Z,1.80
2022-12-03T21:06:36.401Z,1.79
2022-12-03T21:09:07.089Z,1.79
2022-12-03T21:11:39.147Z,1.77
2022-12-03T21:14:08.617Z,1.77
2022-12-03T21:17:07.352Z,1.74
2022-12-03T21:19:28.508Z,1.74
2022-12-03T21:21:57.323Z,1.70
2022-12-03T21:24:25.985Z,1.70
2022-12-03T21:26:54.672Z,1.70
2022-12-03T21:29:25.097Z,1.66
2022-12-03T21:31:53.992Z,1.63
2022-12-03T21:34:22.878Z,1.64
2022-12-03T21:36:51.561Z,1.61
2022-12-03T21:39:20.247Z,1.60
2022-12-03T21:42:19.006Z,1.58
2022-12-03T21:44:38.711Z,1.57
2022-12-03T21:47:10.610Z,1.57
2022-12-03T21:49:41.827Z,1.58
2022-12-03T21:52:11.527Z,1.56
2022-12-03T21:54:40.111Z,1.55
2022-12-03T21:57:08.796Z,1.55
2022-12-03T21:59:37.582Z,1.57
2022-12-03T22:02:06.477Z,1.59
2022-12-03T22:04:35.473Z,1.62
2022-12-03T22:07:04.810Z,1.64
2022-12-03T22:09:34.169Z,1.65
2022-12-03T22:12:02.752Z,1.66
2022-12-03T22:14:32.182Z,1.65
2022-12-03T22:17:00.746Z,1.61
2022-12-03T22:19:29.624Z,1.56
2022-12-03T22:21:58.415Z,1.57
2022-12-03T22:24:27.006Z,1.57
2022-12-03T22:26:56.195Z,1.56
2022-12-03T22:29:25.097Z,1.56
2022-12-03T22:31:53.978Z,1.56
2022-12-03T22:34:23.595Z,1.55
2022-12-03T22:36:52.379Z,1.52
2022-12-03T22:39:21.367Z,1.49
2022-12-03T22:41:50.255Z,1.47
2022-12-03T22:44:19.585Z,1.44
2022-12-03T22:46:48.378Z,1.41
2022-12-03T22:49:17.045Z,1.38
2022-12-03T22:51:47.071Z,1.35
2022-12-03T22:54:20.901Z,1.33
2022-12-03T22:56:52.615Z,1.33
2022-12-03T22:59:21.605Z,1.33
2022-12-03T23:01:50.597Z,1.33
2022-12-03T23:04:19.894Z,1.33
2022-12-03T23:06:48.886Z,1.32
2022-12-03T23:09:17.920Z,1.32
2022-12-03T23:11:47.181Z,1.31
2022-12-03T23:14:16.171Z,1.28
2022-12-03T23:16:45.065Z,1.26
2022-12-03T23:19:15.090Z,1.25
2022-12-03T23:21:43.659Z,1.26
2022-12-03T23:24:12.667Z,1.25
2022-12-03T23:26:41.550Z,1.26
2022-12-03T23:29:11.160Z,1.26
2022-12-03T23:31:40.231Z,1.25
2022-12-03T23:34:09.396Z,1.24
2022-12-03T23:36:38.441Z,1.23
2022-12-03T23:39:07.329Z,1.21
2022-12-03T23:41:36.732Z,1.21
2022-12-03T23:44:06.036Z,1.19
2022-12-03T23:46:35.685Z,1.20
2022-12-03T23:49:04.626Z,1.20
2022-12-03T23:51:34.653Z,1.20
2022-12-03T23:54:03.749Z,1.21
2022-12-03T23:56:32.947Z,1.21
2022-12-03T23:59:02.095Z,1.21
